Terminal Aerodrome Forecast
Issued by NWS

Home | Current Version | Previous Version | Text Only | Print | Product List | Glossary On
Versions: 1 2 3 4 5 6 7 8 9 10 11 12 13 14 15 16
000
FTUS45 KGJT 110541
TAFVEL
TAF
KVEL 110541Z 1106/1206 VRB03KT P6SM VCSH OVC060
      TEMPO 1106/1110 6SM -RASN BR SCT030 OVC040
     FM111000 31005KT P6SM BKN050
     FM111400 28005KT P6SM SCT050
     FM111700 22005KT P6SM SCT045=

USA.gov is the U.S. government's official web portal to all federal, state and local government web resources and services.